Time;durP1;ratioP1;P1;durP2;ratioP2;P2;SDS_P1;SDS_P2;PMS_P1;PMS_P2;Temp;Humidity;BMP_temperature;BMP_pressure;BME280_temperature;BME280_humidity;BME280_pressure;Samples;Min_cycle;Max_cycle;Signal;HPM_P1;HPM_P2
2021/07/16 00:02:01;;;;;;;7.20;3.75;;;17.90;84.90;;;;;;4992484;28;20026;-87
2021/07/16 00:04:26;;;;;;;6.63;3.55;;;17.80;84.90;;;;;;4992620;28;20018;-89
2021/07/16 00:06:52;;;;;;;6.43;3.35;;;17.80;84.80;;;;;;4993156;28;20029;-88
2021/07/16 00:09:19;;;;;;;5.93;3.63;;;17.80;84.70;;;;;;4992553;28;20014;-88
2021/07/16 00:11:44;;;;;;;4.82;3.17;;;17.80;84.60;;;;;;4991988;28;20620;-88
2021/07/16 00:14:10;;;;;;;4.60;3.13;;;17.80;84.60;;;;;;4992447;28;20022;-89
2021/07/16 00:16:38;;;;;;;5.40;3.22;;;17.80;84.50;;;;;;4991821;28;20030;-89
2021/07/16 00:19:04;;;;;;;4.72;2.72;;;17.80;84.40;;;;;;4992642;28;20102;-88
2021/07/16 00:21:29;;;;;;;4.53;3.00;;;17.80;84.30;;;;;;4992238;28;20117;-88
2021/07/16 00:23:55;;;;;;;5.63;3.25;;;17.80;84.20;;;;;;4992314;28;20022;-88
2021/07/16 00:26:21;;;;;;;5.05;2.92;;;17.80;84.10;;;;;;4991856;28;20034;-88
2021/07/16 00:28:47;;;;;;;5.43;2.95;;;17.80;84.10;;;;;;4992667;28;20062;-89
2021/07/16 00:31:12;;;;;;;4.65;2.58;;;17.90;84.10;;;;;;4992499;28;20098;-89
2021/07/16 00:33:38;;;;;;;5.05;3.30;;;17.80;83.90;;;;;;4992151;28;20027;-88
2021/07/16 00:36:04;;;;;;;6.28;3.30;;;17.80;83.80;;;;;;4991839;28;20486;-89
2021/07/16 00:38:30;;;;;;;6.78;3.25;;;17.80;83.90;;;;;;4991798;28;20085;-90
2021/07/16 00:40:56;;;;;;;4.90;2.90;;;17.80;83.90;;;;;;4993271;28;20018;-87
2021/07/16 00:43:22;;;;;;;4.75;2.97;;;17.80;83.90;;;;;;4990796;28;20029;-88
2021/07/16 00:45:48;;;;;;;3.92;2.70;;;17.80;83.90;;;;;;4992398;28;20045;-89
2021/07/16 00:48:14;;;;;;;5.75;3.08;;;17.80;84.00;;;;;;4990974;28;20034;-89
2021/07/16 00:50:41;;;;;;;5.03;2.90;;;17.80;84.00;;;;;;4992351;28;20500;-90
2021/07/16 00:53:15;;;;;;;5.65;3.20;;;17.80;84.10;;;;;;4992177;28;20036;-89
2021/07/16 00:55:42;;;;;;;5.38;3.45;;;17.80;84.10;;;;;;4990820;28;20497;-90
2021/07/16 00:58:08;;;;;;;6.00;3.22;;;17.80;84.10;;;;;;4992900;28;20026;-90
2021/07/16 01:00:34;;;;;;;6.53;3.47;;;17.80;84.10;;;;;;4992586;28;20033;-89
2021/07/16 01:03:00;;;;;;;6.47;2.95;;;17.80;84.10;;;;;;4991598;28;20034;-89
2021/07/16 01:05:26;;;;;;;5.35;2.92;;;17.80;84.20;;;;;;4988403;28;20038;-87
2021/07/16 01:07:52;;;;;;;8.45;3.92;;;17.80;84.20;;;;;;4991939;28;20034;-90
2021/07/16 01:10:20;;;;;;;6.53;3.72;;;17.80;84.20;;;;;;4990996;28;20113;-90
2021/07/16 01:12:51;;;;;;;5.15;2.92;;;17.70;84.10;;;;;;4991648;28;20105;-89
2021/07/16 01:15:18;;;;;;;5.47;3.30;;;17.80;84.30;;;;;;4987477;28;20489;-90
2021/07/16 01:17:45;;;;;;;5.03;3.20;;;17.70;84.20;;;;;;4987335;28;20022;-89
2021/07/16 01:20:20;;;;;;;5.35;3.08;;;17.80;84.30;;;;;;4992430;28;20022;-89
2021/07/16 01:22:47;;;;;;;6.53;3.78;;;17.80;84.30;;;;;;4990113;28;20018;-90
2021/07/16 01:25:14;;;;;;;5.57;3.35;;;17.70;84.20;;;;;;4992238;28;20050;-90
2021/07/16 01:27:41;;;;;;;8.13;3.80;;;17.70;84.20;;;;;;4992928;28;20046;-90
2021/07/16 01:30:10;;;;;;;5.25;3.03;;;17.80;84.30;;;;;;4992611;28;20120;-90
2021/07/16 01:32:37;;;;;;;5.07;3.20;;;17.70;84.20;;;;;;4991653;28;20026;-89
2021/07/16 01:35:04;;;;;;;5.40;3.42;;;17.80;84.20;;;;;;4994192;28;20049;-89
2021/07/16 01:37:30;;;;;;;7.80;4.10;;;17.80;84.20;;;;;;4994542;28;20109;-90
2021/07/16 01:40:00;;;;;;;9.63;3.83;;;17.70;84.10;;;;;;4995601;28;20113;-90
2021/07/16 01:42:50;;;;;;;6.95;3.60;;;17.70;84.10;;;;;;4995492;28;20060;-89
2021/07/16 01:45:23;;;;;;;7.45;3.70;;;17.70;84.10;;;;;;4995329;28;20022;-90
2021/07/16 01:47:53;;;;;;;5.90;3.47;;;17.70;84.00;;;;;;4995457;28;20118;-88
2021/07/16 01:50:19;;;;;;;7.28;3.92;;;17.60;83.90;;;;;;4993898;28;20570;-88
2021/07/16 01:52:46;;;;;;;5.82;3.70;;;17.60;83.80;;;;;;4993767;28;20026;-89
2021/07/16 01:55:12;;;;;;;6.93;3.78;;;17.60;83.80;;;;;;4995258;28;20060;-89
2021/07/16 01:57:38;;;;;;;10.27;3.80;;;17.60;83.60;;;;;;4993433;28;20022;-89
2021/07/16 02:00:10;;;;;;;7.70;4.07;;;17.60;83.50;;;;;;4994986;28;20118;-89
2021/07/16 02:02:44;;;;;;;8.82;3.95;;;17.60;83.40;;;;;;4993458;28;20042;-90
2021/07/16 02:05:10;;;;;;;7.03;3.45;;;17.60;83.20;;;;;;4985027;28;20540;-90
2021/07/16 02:07:36;;;;;;;10.27;3.70;;;17.60;83.30;;;;;;4995366;28;20030;-89
2021/07/16 02:10:02;;;;;;;5.90;3.50;;;17.60;83.30;;;;;;4995448;28;20023;-90
2021/07/16 02:12:27;;;;;;;7.32;4.07;;;17.60;83.20;;;;;;4994054;28;20046;-88
2021/07/16 02:14:53;;;;;;;7.32;3.60;;;17.60;83.20;;;;;;4994101;28;20030;-89
2021/07/16 02:17:18;;;;;;;5.93;3.53;;;17.50;83.10;;;;;;4995037;28;20105;-89
2021/07/16 02:19:46;;;;;;;7.15;3.65;;;17.50;83.10;;;;;;4995167;28;20041;-89
2021/07/16 02:22:11;;;;;;;5.18;3.38;;;17.50;83.00;;;;;;4993654;28;20022;-89
2021/07/16 02:24:37;;;;;;;5.50;3.33;;;17.50;83.10;;;;;;4994628;28;20095;-90
2021/07/16 02:27:04;;;;;;;6.53;3.58;;;17.50;83.10;;;;;;4994447;28;20176;-90
2021/07/16 02:29:30;;;;;;;9.00;3.70;;;17.50;83.10;;;;;;4993473;28;20493;-89
2021/07/16 02:31:56;;;;;;;6.43;3.35;;;17.50;83.20;;;;;;4994853;28;20014;-90
2021/07/16 02:34:21;;;;;;;8.02;3.38;;;17.50;83.20;;;;;;4995044;28;20037;-89
2021/07/16 02:36:48;;;;;;;9.18;4.68;;;17.50;83.10;;;;;;4994487;28;20068;-89
2021/07/16 02:39:13;;;;;;;8.07;3.92;;;17.40;83.00;;;;;;4993274;28;20046;-89
2021/07/16 02:41:39;;;;;;;8.73;3.92;;;17.40;83.00;;;;;;4994686;28;20629;-89
2021/07/16 02:44:05;;;;;;;8.32;3.67;;;17.40;82.90;;;;;;4994560;28;20109;-89
2021/07/16 02:46:31;;;;;;;9.13;3.60;;;17.40;83.00;;;;;;4993840;28;20037;-90
2021/07/16 02:48:56;;;;;;;9.98;4.32;;;17.40;83.00;;;;;;4994804;28;20105;-89
2021/07/16 02:51:22;;;;;;;9.48;3.83;;;17.40;82.90;;;;;;4993825;28;20053;-88
2021/07/16 02:53:47;;;;;;;7.32;3.40;;;17.40;82.70;;;;;;4992735;28;20038;-89
2021/07/16 02:56:13;;;;;;;7.10;3.65;;;17.30;82.60;;;;;;4993989;28;20028;-89
2021/07/16 02:58:39;;;;;;;7.18;3.60;;;17.30;82.60;;;;;;4993162;28;20022;-89
2021/07/16 03:01:04;;;;;;;8.20;3.53;;;17.30;82.50;;;;;;4993969;28;20113;-87
2021/07/16 03:03:30;;;;;;;8.13;3.58;;;17.30;82.40;;;;;;4993597;28;20027;-88
2021/07/16 03:05:55;;;;;;;7.90;3.75;;;17.20;82.20;;;;;;4993783;28;20031;-89
2021/07/16 03:08:21;;;;;;;9.27;3.63;;;17.20;82.20;;;;;;4994124;28;20034;-90
2021/07/16 03:10:47;;;;;;;8.07;3.63;;;17.20;82.10;;;;;;4993292;28;20026;-87
2021/07/16 03:13:15;;;;;;;9.50;3.70;;;17.20;82.00;;;;;;4989361;28;20030;-89
2021/07/16 03:15:42;;;;;;;7.53;3.70;;;17.20;82.00;;;;;;4994431;28;20521;-89
2021/07/16 03:18:08;;;;;;;8.50;3.60;;;17.20;81.90;;;;;;4994290;28;20022;-90
2021/07/16 03:20:39;;;;;;;7.50;3.35;;;17.20;82.00;;;;;;4993792;28;20014;-89
2021/07/16 03:23:06;;;;;;;8.13;3.40;;;17.20;81.90;;;;;;4992986;28;20050;-88
2021/07/16 03:25:32;;;;;;;7.32;3.28;;;17.10;81.80;;;;;;4993403;28;20091;-87
2021/07/16 03:27:58;;;;;;;7.75;3.22;;;17.10;81.60;;;;;;4993277;28;20042;-88
2021/07/16 03:30:26;;;;;;;9.20;3.50;;;17.10;81.70;;;;;;4993330;28;20109;-88
2021/07/16 03:32:52;;;;;;;10.63;3.83;;;17.10;81.50;;;;;;4991859;28;20033;-88
2021/07/16 03:35:19;;;;;;;8.65;3.33;;;17.10;81.50;;;;;;4993847;28;20022;-89
2021/07/16 03:37:45;;;;;;;10.40;3.72;;;17.10;81.50;;;;;;4991692;28;20026;-89
2021/07/16 03:40:14;;;;;;;9.00;3.40;;;17.10;81.40;;;;;;4991693;28;20041;-89
2021/07/16 03:42:40;;;;;;;7.55;3.30;;;17.10;81.30;;;;;;4990624;28;20607;-88
2021/07/16 03:45:07;;;;;;;7.85;3.25;;;17.10;81.40;;;;;;4992818;28;20061;-89
2021/07/16 03:47:33;;;;;;;8.70;3.40;;;17.10;81.50;;;;;;4992025;28;20528;-88
2021/07/16 03:49:59;;;;;;;9.20;3.00;;;17.10;81.40;;;;;;4992782;28;20023;-89
2021/07/16 03:52:25;;;;;;;7.45;3.22;;;17.10;81.40;;;;;;4992570;28;20145;-88
2021/07/16 03:54:51;;;;;;;9.23;3.50;;;17.10;81.40;;;;;;4992794;28;20113;-89
2021/07/16 03:57:17;;;;;;;7.68;3.10;;;17.10;81.20;;;;;;4992562;28;20061;-87
2021/07/16 03:59:43;;;;;;;7.57;3.45;;;17.00;81.20;;;;;;4992898;28;20624;-89
2021/07/16 04:02:08;;;;;;;8.65;3.03;;;17.00;81.20;;;;;;4990587;28;20030;-88
2021/07/16 04:04:34;;;;;;;7.75;2.88;;;17.00;81.30;;;;;;4993109;28;20042;-89
2021/07/16 04:07:00;;;;;;;6.70;3.00;;;17.00;81.30;;;;;;4992576;28;20506;-89
2021/07/16 04:09:27;;;;;;;5.10;2.65;;;17.10;81.30;;;;;;4991546;28;20034;-89
2021/07/16 04:12:16;;;;;;;6.70;3.10;;;17.10;81.40;;;;;;4980607;28;20022;-90
2021/07/16 04:14:47;;;;;;;6.85;2.55;;;17.10;81.20;;;;;;4991684;28;20019;-88
2021/07/16 04:17:18;;;;;;;7.63;3.00;;;17.10;81.30;;;;;;4990962;28;20053;-90
2021/07/16 04:19:44;;;;;;;8.32;2.70;;;17.10;81.30;;;;;;4993064;28;20022;-89
2021/07/16 04:22:11;;;;;;;5.95;2.83;;;17.10;81.30;;;;;;4992735;28;20046;-89
2021/07/16 04:24:38;;;;;;;8.60;3.05;;;17.10;81.20;;;;;;4992421;28;20019;-89
2021/07/16 04:27:05;;;;;;;5.05;2.60;;;17.10;81.20;;;;;;4992442;28;20042;-89
2021/07/16 04:29:32;;;;;;;5.65;2.40;;;17.10;81.20;;;;;;4992405;28;20084;-88
2021/07/16 04:31:59;;;;;;;7.60;2.90;;;17.10;81.20;;;;;;4990809;28;20038;-89
2021/07/16 04:34:26;;;;;;;10.65;3.75;;;17.10;81.10;;;;;;4992242;28;20022;-89
2021/07/16 04:36:51;;;;;;;6.57;2.67;;;17.10;80.80;;;;;;4991800;28;20027;-88
2021/07/16 04:39:17;;;;;;;8.05;3.03;;;17.10;80.90;;;;;;4992319;28;20019;-89
2021/07/16 04:41:42;;;;;;;9.48;3.40;;;17.10;80.80;;;;;;4991982;28;20053;-90
2021/07/16 04:44:08;;;;;;;7.38;2.60;;;17.10;80.80;;;;;;4992605;28;20030;-89
2021/07/16 04:46:34;;;;;;;7.15;2.35;;;17.20;80.80;;;;;;4992850;28;20485;-89
2021/07/16 04:49:00;;;;;;;9.50;2.50;;;17.20;80.70;;;;;;4992000;28;20485;-90
2021/07/16 04:51:30;;;;;;;7.57;2.63;;;17.20;80.70;;;;;;4992692;28;20070;-91
2021/07/16 04:53:57;;;;;;;6.38;2.60;;;17.30;80.70;;;;;;4992588;28;20030;-91
2021/07/16 04:56:23;;;;;;;6.10;2.65;;;17.30;80.70;;;;;;4993198;28;20026;-89
2021/07/16 04:58:49;;;;;;;5.72;2.65;;;17.30;80.60;;;;;;4981443;28;20014;-92
2021/07/16 05:01:16;;;;;;;9.85;3.05;;;17.30;80.50;;;;;;4986823;28;20037;-91
2021/07/16 05:03:42;;;;;;;6.93;2.40;;;17.30;80.40;;;;;;4991652;28;20027;-91
2021/07/16 05:06:08;;;;;;;8.00;2.15;;;17.30;80.50;;;;;;4992422;28;20085;-91
2021/07/16 05:08:33;;;;;;;9.43;2.72;;;17.30;80.40;;;;;;4992175;28;20515;-91
2021/07/16 05:10:59;;;;;;;8.55;2.75;;;17.30;80.00;;;;;;4992879;28;20097;-91
2021/07/16 05:13:26;;;;;;;8.05;2.88;;;17.30;80.00;;;;;;4992667;28;20031;-91
2021/07/16 05:15:52;;;;;;;6.60;2.08;;;17.30;80.00;;;;;;4992395;28;20034;-91
2021/07/16 05:18:17;;;;;;;6.35;2.20;;;17.30;80.20;;;;;;4992798;28;20101;-91
2021/07/16 05:20:44;;;;;;;8.60;2.35;;;17.40;79.90;;;;;;4972962;28;20071;-90
2021/07/16 05:23:09;;;;;;;7.70;2.58;;;17.40;80.40;;;;;;4972480;28;20538;-90
2021/07/16 05:25:35;;;;;;;6.57;2.00;;;17.40;79.70;;;;;;4987806;28;20057;-89
2021/07/16 05:28:00;;;;;;;3.90;1.85;;;17.40;79.80;;;;;;4992265;28;20714;-90
2021/07/16 05:30:26;;;;;;;6.85;2.30;;;17.40;79.70;;;;;;4994581;28;20026;-89
2021/07/16 05:32:52;;;;;;;6.18;2.38;;;17.40;79.70;;;;;;5004686;28;20026;-95
2021/07/16 05:35:20;;;;;;;7.05;2.50;;;17.50;79.70;;;;;;5000714;28;20038;-96
2021/07/16 05:37:47;;;;;;;5.13;2.00;;;17.50;79.60;;;;;;4997201;28;20023;-96
2021/07/16 05:40:14;;;;;;;3.95;2.00;;;17.60;79.60;;;;;;4999757;28;20054;-95
2021/07/16 05:42:39;;;;;;;5.32;2.10;;;17.60;79.50;;;;;;4998566;28;20081;-96
2021/07/16 05:45:06;;;;;;;6.63;2.50;;;17.60;79.50;;;;;;4998446;28;20056;-95
2021/07/16 05:47:31;;;;;;;6.82;2.20;;;17.70;79.40;;;;;;4995908;28;20099;-95
2021/07/16 05:49:57;;;;;;;6.90;2.30;;;17.80;79.30;;;;;;4996694;28;20026;-96
2021/07/16 05:52:24;;;;;;;6.93;2.20;;;17.90;79.10;;;;;;4995741;28;20116;-96
2021/07/16 05:54:53;;;;;;;7.28;2.53;;;18.00;78.80;;;;;;4992116;28;20037;-96
2021/07/16 05:57:19;;;;;;;10.00;2.72;;;18.10;78.30;;;;;;4993395;28;20026;-96
2021/07/16 05:59:45;;;;;;;7.55;2.15;;;18.10;78.10;;;;;;4993732;28;20024;-96
2021/07/16 06:02:11;;;;;;;7.50;2.45;;;18.20;77.90;;;;;;4983298;28;20086;-96
2021/07/16 06:04:36;;;;;;;7.28;2.17;;;18.30;77.60;;;;;;4994125;28;20015;-96
2021/07/16 06:07:02;;;;;;;7.22;2.45;;;18.40;77.60;;;;;;4994445;28;20034;-96
2021/07/16 06:09:28;;;;;;;7.78;2.55;;;18.40;77.40;;;;;;4993655;28;20121;-96
2021/07/16 06:11:54;;;;;;;6.88;2.35;;;18.40;77.20;;;;;;4982324;28;20090;-96
2021/07/16 06:14:19;;;;;;;5.45;2.15;;;18.40;77.20;;;;;;4993637;28;20018;-96
2021/07/16 06:16:49;;;;;;;10.20;2.35;;;18.40;77.20;;;;;;4993600;28;20027;-96
2021/07/16 06:19:18;;;;;;;7.75;3.15;;;18.30;77.20;;;;;;4982451;28;20023;-96
2021/07/16 06:21:44;;;;;;;9.30;2.40;;;18.30;77.00;;;;;;4988567;28;20023;-96
2021/07/16 06:24:10;;;;;;;7.57;2.30;;;18.20;76.90;;;;;;4983303;28;20775;-96
2021/07/16 06:26:36;;;;;;;7.60;2.00;;;18.20;77.20;;;;;;4978610;28;20019;-96
2021/07/16 06:29:06;;;;;;;8.30;2.22;;;18.20;77.30;;;;;;4976631;28;20490;-96
2021/07/16 06:31:32;;;;;;;6.32;2.00;;;18.20;77.30;;;;;;4990359;28;20023;-96
2021/07/16 06:33:58;;;;;;;7.25;2.47;;;18.30;77.40;;;;;;4996292;28;20057;-96
2021/07/16 06:36:24;;;;;;;6.10;1.98;;;18.30;77.20;;;;;;4985454;28;20026;-95
2021/07/16 06:38:50;;;;;;;9.02;2.28;;;18.30;77.20;;;;;;4987580;28;20228;-95
2021/07/16 06:41:15;;;;;;;5.80;2.30;;;18.30;77.30;;;;;;4987498;28;20021;-96
2021/07/16 06:43:41;;;;;;;8.27;2.30;;;18.30;77.10;;;;;;4989190;28;20023;-96
2021/07/16 06:46:08;;;;;;;6.38;1.88;;;18.30;77.70;;;;;;4987994;28;20084;-96
2021/07/16 06:56:21;;;;;;;8.18;2.28;;;18.50;76.90;;;;;;5162914;23;20061;-96
2021/07/16 07:01:18;;;;;;;7.50;2.40;;;18.40;75.80;;;;;;5012004;28;20073;-95
2021/07/16 07:03:43;;;;;;;11.88;3.03;;;18.50;76.20;;;;;;5015295;28;20478;-95
2021/07/16 07:06:09;;;;;;;7.18;2.38;;;18.40;76.00;;;;;;5028707;28;20034;-96
2021/07/16 07:09:01;;;;;;;7.72;2.28;;;18.40;76.10;;;;;;5036484;28;20060;-96
2021/07/16 07:15:16;;;;;;;;;;;18.40;75.70;;;;;;5039736;28;20048;-96
2021/07/16 07:18:11;;;;;;;11.20;2.90;;;18.40;76.00;;;;;;5034634;28;19932;-96
2021/07/16 07:24:23;;;;;;;6.50;2.50;;;18.50;76.20;;;;;;5176146;23;20068;-96
2021/07/16 07:26:49;;;;;;;8.15;2.75;;;18.50;76.30;;;;;;5035844;28;20040;-96
2021/07/16 07:31:56;;;;;;;9.00;2.58;;;18.50;75.90;;;;;;5059647;23;20050;-96
2021/07/16 07:34:23;;;;;;;8.20;2.53;;;18.50;76.00;;;;;;5018166;28;20010;-96
2021/07/16 07:36:49;;;;;;;10.35;3.15;;;18.60;76.00;;;;;;5018385;28;20014;-96
2021/07/16 07:52:27;;;;;;;9.75;2.33;;;18.50;75.70;;;;;;5014845;28;20035;-96
2021/07/16 07:54:54;;;;;;;11.00;2.65;;;18.60;75.60;;;;;;5018023;28;20027;-96
2021/07/16 07:57:20;;;;;;;8.35;2.38;;;18.50;75.30;;;;;;5017930;28;20038;-96
2021/07/16 07:59:46;;;;;;;8.15;2.40;;;18.50;75.40;;;;;;5017280;28;20034;-96
2021/07/16 08:04:53;;;;;;;7.35;2.13;;;18.70;75.30;;;;;;6026183;23;20091;-94
2021/07/16 08:07:19;;;;;;;9.80;2.38;;;18.80;75.30;;;;;;4992057;28;20038;-94
2021/07/16 08:09:44;;;;;;;7.18;1.98;;;18.80;75.20;;;;;;4997967;28;20023;-95
2021/07/16 08:12:10;;;;;;;7.15;2.05;;;18.90;75.20;;;;;;4983498;28;20034;-91
2021/07/16 08:20:33;;;;;;;9.70;2.65;;;19.00;74.60;;;;;;4972699;28;20084;-77
2021/07/16 08:22:59;;;;;;;11.40;2.63;;;19.10;73.90;;;;;;4984954;28;20034;-79
2021/07/16 08:25:24;;;;;;;7.20;1.95;;;19.10;73.90;;;;;;4979567;28;20398;-78
2021/07/16 08:27:50;;;;;;;9.57;2.40;;;19.30;74.00;;;;;;4971464;28;20062;-80
2021/07/16 08:30:16;;;;;;;8.55;2.60;;;19.50;73.40;;;;;;4980331;28;20097;-80
2021/07/16 08:32:43;;;;;;;7.65;2.63;;;19.60;72.80;;;;;;4973189;28;20488;-80
2021/07/16 08:35:09;;;;;;;7.80;2.38;;;19.70;72.40;;;;;;4975515;28;20054;-80
2021/07/16 08:37:34;;;;;;;9.13;2.72;;;19.80;71.80;;;;;;4983114;28;20030;-79
2021/07/16 08:40:00;;;;;;;10.80;2.47;;;19.90;71.20;;;;;;4979786;28;20035;-81
2021/07/16 08:42:26;;;;;;;10.68;2.78;;;20.10;71.30;;;;;;4975023;28;20027;-80
2021/07/16 08:44:53;;;;;;;9.05;2.88;;;20.10;70.60;;;;;;4985828;28;20365;-81
2021/07/16 08:47:19;;;;;;;11.77;3.08;;;20.10;70.20;;;;;;4974092;28;20380;-80
2021/07/16 08:49:45;;;;;;;8.45;2.60;;;20.20;70.30;;;;;;4972877;28;20023;-81
2021/07/16 08:52:12;;;;;;;9.27;2.45;;;20.30;70.10;;;;;;4972231;28;20551;-81
2021/07/16 08:54:45;;;;;;;10.60;2.90;;;20.30;69.90;;;;;;4974133;28;20022;-81
2021/07/16 08:57:12;;;;;;;9.00;2.53;;;20.30;69.70;;;;;;4984712;28;20029;-81
2021/07/16 08:59:38;;;;;;;9.93;3.25;;;20.30;70.60;;;;;;4986748;28;20030;-81
2021/07/16 09:02:04;;;;;;;12.38;3.20;;;20.40;69.50;;;;;;4976795;28;20027;-81
2021/07/16 09:04:37;;;;;;;9.18;2.60;;;20.60;69.30;;;;;;4973725;28;20397;-81
2021/07/16 09:07:03;;;;;;;9.48;2.92;;;20.80;68.60;;;;;;4981981;28;20030;-80
2021/07/16 09:09:35;;;;;;;9.20;2.90;;;20.90;68.10;;;;;;4977135;28;20153;-78
2021/07/16 09:12:01;;;;;;;;;;;21.10;67.50;;;;;;4976228;28;20073;-78
2021/07/16 09:14:29;;;;;;;12.52;2.95;;;21.30;67.60;;;;;;4971313;28;20004;-81
2021/07/16 09:17:02;;;;;;;7.60;2.70;;;21.40;66.90;;;;;;4986559;28;20033;-82
2021/07/16 09:19:35;;;;;;;9.40;2.92;;;21.20;66.60;;;;;;4983393;28;20053;-81
2021/07/16 09:22:04;;;;;;;11.27;2.40;;;21.10;66.80;;;;;;4987136;28;20112;-79
2021/07/16 09:24:30;;;;;;;8.80;3.20;;;21.00;67.10;;;;;;4982794;28;20034;-78
2021/07/16 09:26:55;;;;;;;9.20;2.42;;;20.90;67.00;;;;;;4977552;28;20031;-80
2021/07/16 09:29:29;;;;;;;7.03;2.42;;;20.80;67.40;;;;;;4982856;28;20489;-79
2021/07/16 09:32:07;;;;;;;6.45;2.17;;;20.90;68.00;;;;;;4978811;28;20105;-79
2021/07/16 09:34:33;;;;;;;6.05;1.98;;;20.80;68.10;;;;;;4982992;28;20117;-79
2021/07/16 09:37:09;;;;;;;9.13;2.80;;;20.70;68.60;;;;;;4981749;28;20048;-79
2021/07/16 09:39:36;;;;;;;7.72;2.70;;;20.60;68.80;;;;;;4981326;28;20470;-79
2021/07/16 09:42:04;;;;;;;8.25;2.40;;;20.50;68.90;;;;;;4973511;28;20405;-79
2021/07/16 09:44:31;;;;;;;8.95;2.30;;;20.40;69.10;;;;;;4983119;28;20027;-79
2021/07/16 09:47:13;;;;;;;10.27;2.50;;;20.40;69.30;;;;;;4978070;28;20536;-79
2021/07/16 09:49:40;;;;;;;8.70;2.50;;;20.30;69.50;;;;;;4985060;28;20054;-79
2021/07/16 09:52:08;;;;;;;6.90;2.20;;;20.30;69.70;;;;;;4972226;28;20114;-79
2021/07/16 09:54:35;;;;;;;10.18;2.97;;;20.20;70.00;;;;;;4978022;28;20038;-78
2021/07/16 09:57:01;;;;;;;6.93;2.45;;;20.10;69.60;;;;;;4970290;28;20022;-77
2021/07/16 09:59:30;;;;;;;7.53;2.40;;;19.90;69.70;;;;;;4976890;28;20481;-77
2021/07/16 10:01:56;;;;;;;5.65;2.15;;;19.80;70.40;;;;;;4975520;28;20380;-78
2021/07/16 10:04:23;;;;;;;9.07;2.50;;;19.90;70.70;;;;;;4983376;28;20106;-77
2021/07/16 10:06:54;;;;;;;7.75;2.20;;;19.90;70.80;;;;;;4977450;28;20031;-78
2021/07/16 10:09:22;;;;;;;5.38;2.45;;;19.90;71.00;;;;;;4984024;28;20034;-78
2021/07/16 10:11:51;;;;;;;7.50;2.10;;;19.90;71.10;;;;;;4978333;28;20396;-79
2021/07/16 10:14:18;;;;;;;10.80;2.88;;;19.90;71.00;;;;;;4976307;28;20034;-79
2021/07/16 10:16:48;;;;;;;7.45;2.30;;;20.00;70.90;;;;;;4985787;28;20035;-77
2021/07/16 10:19:16;;;;;;;8.18;2.50;;;19.90;70.90;;;;;;4989579;28;20029;-78
2021/07/16 10:21:43;;;;;;;6.45;2.25;;;19.90;71.00;;;;;;4979045;28;20033;-79
2021/07/16 10:24:10;;;;;;;6.00;2.33;;;19.80;71.20;;;;;;4975451;28;20034;-79
2021/07/16 10:26:36;;;;;;;7.82;2.60;;;19.90;71.50;;;;;;4976384;28;20103;-80
2021/07/16 10:29:02;;;;;;;6.97;2.30;;;19.80;71.60;;;;;;4980622;28;20424;-80
2021/07/16 10:31:28;;;;;;;7.40;2.30;;;19.80;71.70;;;;;;4975912;28;20023;-79
2021/07/16 10:33:59;;;;;;;9.23;2.38;;;19.80;71.80;;;;;;4988251;28;20034;-80
2021/07/16 10:36:37;;;;;;;9.00;2.70;;;19.80;72.10;;;;;;4990827;28;20109;-79
2021/07/16 10:39:08;;;;;;;8.60;2.47;;;19.70;72.30;;;;;;4981187;28;20027;-80
2021/07/16 10:41:37;;;;;;;11.00;3.15;;;19.70;72.50;;;;;;4977291;28;20026;-80
2021/07/16 10:44:03;;;;;;;5.90;2.30;;;19.60;72.70;;;;;;4983955;28;20027;-80
2021/07/16 10:46:34;;;;;;;7.72;2.65;;;19.60;72.80;;;;;;4981299;28;20027;-78
2021/07/16 10:49:01;;;;;;;9.57;2.60;;;19.60;72.80;;;;;;4991609;28;20034;-78
2021/07/16 10:51:29;;;;;;;5.90;2.45;;;19.60;72.60;;;;;;4984569;28;20077;-77
2021/07/16 10:53:56;;;;;;;9.70;2.97;;;19.70;72.60;;;;;;4976874;28;20505;-78
2021/07/16 10:56:39;;;;;;;8.68;2.45;;;19.80;72.40;;;;;;4988329;28;20031;-78
2021/07/16 10:59:08;;;;;;;8.35;2.60;;;19.90;72.40;;;;;;4979589;28;20380;-78
2021/07/16 11:01:42;;;;;;;11.23;3.03;;;19.90;72.40;;;;;;4985092;28;20054;-78
2021/07/16 11:04:29;;;;;;;9.20;2.80;;;19.90;72.80;;;;;;4978837;28;20031;-78
2021/07/16 11:07:12;;;;;;;8.07;2.80;;;19.80;72.20;;;;;;4978856;28;20030;-79
2021/07/16 11:09:43;;;;;;;7.82;2.58;;;19.80;72.40;;;;;;4989777;28;20053;-80
2021/07/16 11:12:35;;;;;;;7.78;2.55;;;19.70;72.60;;;;;;4987864;28;20025;-79
2021/07/16 11:15:01;;;;;;;;;;;19.80;73.40;;;;;;4978723;28;20027;-79
2021/07/16 11:17:29;;;;;;;10.02;2.30;;;19.80;72.60;;;;;;4990722;28;20518;-79
2021/07/16 11:20:15;;;;;;;10.88;2.78;;;19.90;72.70;;;;;;4978893;28;20015;-79
2021/07/16 11:22:56;;;;;;;13.75;3.35;;;20.00;73.00;;;;;;4985402;28;20080;-80
2021/07/16 11:25:22;;;;;;;13.38;3.45;;;20.10;71.70;;;;;;4976018;28;20022;-80
2021/07/16 11:27:47;;;;;;;10.45;3.15;;;20.10;71.40;;;;;;4977454;28;20030;-79
2021/07/16 11:30:13;;;;;;;11.10;3.00;;;20.10;71.30;;;;;;4976834;28;20396;-80
2021/07/16 11:32:39;;;;;;;10.20;3.05;;;20.10;71.20;;;;;;4973402;28;20511;-81
2021/07/16 11:35:13;;;;;;;5.80;2.20;;;20.20;71.00;;;;;;4971930;28;20034;-80
2021/07/16 11:38:01;;;;;;;;;;;;;;;;;;;;;
2021/07/16 11:40:40;;;;;;;;;;;;;;;;;;;;;
2021/07/16 11:56:56;;;;;;;8.18;2.33;;;21.00;69.60;;;;;;4966521;28;20081;-79
2021/07/16 11:59:23;;;;;;;10.32;3.50;;;21.20;69.10;;;;;;4964107;28;20396;-75
2021/07/16 12:02:07;;;;;;;10.82;2.80;;;21.30;68.50;;;;;;4966852;28;20030;-78
2021/07/16 12:04:33;;;;;;;6.47;2.15;;;21.30;68.20;;;;;;4978020;28;20015;-77
2021/07/16 12:06:59;;;;;;;6.10;2.10;;;21.40;68.20;;;;;;4962765;28;20027;-77
2021/07/16 12:09:32;;;;;;;8.68;2.22;;;21.40;67.80;;;;;;4967170;28;20035;-82
2021/07/16 12:12:09;;;;;;;6.55;2.30;;;21.50;68.20;;;;;;4968307;28;20086;-78
2021/07/16 12:14:45;;;;;;;10.35;3.50;;;21.50;67.80;;;;;;4968398;28;20038;-78
2021/07/16 12:17:11;;;;;;;9.35;2.78;;;21.30;67.10;;;;;;4966638;28;20030;-78
2021/07/16 12:19:37;;;;;;;9.13;2.40;;;21.30;67.60;;;;;;4968287;28;20030;-78
2021/07/16 12:22:03;;;;;;;9.70;2.85;;;21.30;67.90;;;;;;4967587;28;20058;-78
2021/07/16 12:24:28;;;;;;;7.95;2.70;;;21.30;67.80;;;;;;4970863;28;20455;-78
2021/07/16 12:27:11;;;;;;;9.02;3.03;;;21.30;67.70;;;;;;4970635;28;20035;-78
2021/07/16 12:29:36;;;;;;;;;;;21.30;67.80;;;;;;4971753;28;20572;-78
2021/07/16 12:32:05;;;;;;;7.75;2.30;;;21.30;67.70;;;;;;4971385;28;20109;-77
2021/07/16 12:34:31;;;;;;;11.93;2.70;;;21.40;67.90;;;;;;4971328;28;20030;-78
2021/07/16 12:37:35;;;;;;;6.82;2.65;;;21.40;67.70;;;;;;4971386;28;20398;-76
2021/07/16 12:40:03;;;;;;;7.85;2.17;;;21.40;67.80;;;;;;4941292;28;61445;-78
2021/07/16 12:42:29;;;;;;;6.22;2.20;;;21.50;68.10;;;;;;4967837;28;20035;-79
2021/07/16 12:45:12;;;;;;;6.30;2.40;;;21.50;67.90;;;;;;4962508;28;20393;-78
2021/07/16 12:47:51;;;;;;;10.43;2.50;;;21.50;67.80;;;;;;4960960;28;20046;-79
2021/07/16 12:50:19;;;;;;;9.27;2.47;;;21.50;67.70;;;;;;4966931;28;20027;-77
2021/07/16 12:52:56;;;;;;;6.13;2.13;;;21.50;67.70;;;;;;4957003;28;20030;-77
2021/07/16 12:55:23;;;;;;;7.28;2.28;;;21.70;67.90;;;;;;4960207;28;20486;-80
2021/07/16 12:57:59;;;;;;;8.50;2.80;;;21.80;67.60;;;;;;4965853;28;20026;-78
2021/07/16 13:00:25;;;;;;;6.95;2.83;;;21.80;67.20;;;;;;4966731;28;20521;-78
2021/07/16 13:02:51;;;;;;;8.52;2.60;;;21.80;67.20;;;;;;4967698;28;20031;-78
2021/07/16 13:05:31;;;;;;;8.35;2.45;;;21.80;67.00;;;;;;4968305;28;20347;-77
2021/07/16 13:08:23;;;;;;;8.35;2.70;;;21.80;67.00;;;;;;4968581;28;20035;-78
2021/07/16 13:10:58;;;;;;;9.02;2.80;;;21.80;67.00;;;;;;4976607;28;20027;-78
2021/07/16 13:13:26;;;;;;;8.55;2.72;;;21.90;67.10;;;;;;4963288;28;20018;-77
2021/07/16 13:16:11;;;;;;;7.40;2.40;;;21.90;67.00;;;;;;4966678;28;20485;-78
2021/07/16 13:18:52;;;;;;;8.32;3.10;;;22.00;66.90;;;;;;4956984;28;20501;-78
2021/07/16 13:21:18;;;;;;;8.10;3.20;;;22.00;66.60;;;;;;4963390;28;20034;-77
2021/07/16 13:23:45;;;;;;;8.73;3.10;;;22.00;66.70;;;;;;4950977;28;20027;-77
2021/07/16 13:26:17;;;;;;;11.35;2.75;;;22.00;66.70;;;;;;4964485;28;20026;-76
2021/07/16 13:28:45;;;;;;;8.27;3.17;;;22.10;66.70;;;;;;4963478;28;20537;-76
2021/07/16 13:31:12;;;;;;;10.20;2.72;;;22.10;66.30;;;;;;4962809;28;20441;-77
2021/07/16 13:33:38;;;;;;;9.68;3.50;;;22.20;66.30;;;;;;4968422;28;20031;-78
2021/07/16 13:36:05;;;;;;;9.60;3.13;;;22.20;66.00;;;;;;4967759;28;20038;-79
2021/07/16 13:38:32;;;;;;;8.23;2.85;;;22.20;65.90;;;;;;4973677;28;20206;-78
2021/07/16 13:41:05;;;;;;;7.75;2.60;;;22.20;65.70;;;;;;4971673;28;20026;-77
2021/07/16 13:43:36;;;;;;;6.70;2.35;;;22.30;65.70;;;;;;4966231;28;20099;-78
2021/07/16 13:46:39;;;;;;;;;;;;;;;;;;;;;
2021/07/16 13:49:07;;;;;;;9.77;3.03;;;22.20;65.50;;;;;;4969745;28;20054;-79
2021/07/16 13:51:33;;;;;;;5.35;1.80;;;22.20;65.50;;;;;;4986475;28;20424;-77
2021/07/16 13:54:24;;;;;;;7.63;2.45;;;22.20;65.90;;;;;;4962656;28;20035;-81